Time;durP1;ratioP1;P1;durP2;ratioP2;P2;SDS_P1;SDS_P2;PMS_P1;PMS_P2;Temp;Humidity;BMP_temperature;BMP_pressure;BME280_temperature;BME280_humidity;BME280_pressure;Samples;Min_cycle;Max_cycle;Signal;HPM_P1;HPM_P2
2023/12/28 00:00:00;;;;;;;16.00;10.50;;;23.90;55.60;;;;;;219207;1285;25419;-48
2023/12/28 00:05:07;;;;;;;15.40;10.70;;;23.80;56.00;;;;;;218969;1279;24234;-49
2023/12/28 00:10:12;;;;;;;14.40;9.60;;;23.60;56.10;;;;;;219137;1283;22589;-50
2023/12/28 00:15:16;;;;;;;15.00;10.00;;;23.50;56.30;;;;;;218960;1283;22534;-47
2023/12/28 00:20:20;;;;;;;13.90;9.70;;;23.40;56.40;;;;;;219112;1286;24256;-46
2023/12/28 00:25:27;;;;;;;15.60;10.10;;;23.30;56.60;;;;;;218993;1286;22544;-47
2023/12/28 00:30:32;;;;;;;15.30;10.40;;;23.20;56.60;;;;;;219441;1283;26538;-46
2023/12/28 00:35:37;;;;;;;15.30;9.80;;;23.20;56.70;;;;;;218843;1285;22524;-47
2023/12/28 00:40:41;;;;;;;14.40;9.20;;;23.10;56.80;;;;;;219140;1279;22560;-45
2023/12/28 00:45:46;;;;;;;11.90;9.60;;;23.10;56.80;;;;;;219087;1286;22632;-47
2023/12/28 00:50:50;;;;;;;11.70;9.00;;;23.10;56.70;;;;;;217955;1292;22549;-48
2023/12/28 00:55:55;;;;;;;12.80;8.70;;;23.30;56.70;;;;;;218189;1291;22638;-51
2023/12/28 01:00:59;;;;;;;14.40;8.70;;;23.60;55.60;;;;;;218355;1289;22680;-56
2023/12/28 01:06:05;;;;;;;13.90;9.30;;;23.80;55.30;;;;;;217797;1281;22662;-56
2023/12/28 01:11:12;;;;;;;12.30;9.50;;;24.00;55.20;;;;;;219245;1283;23104;-55
2023/12/28 01:16:16;;;;;;;13.00;9.40;;;24.10;54.60;;;;;;221159;1286;22778;-55
2023/12/28 01:21:21;;;;;;;12.50;9.20;;;24.20;54.20;;;;;;221340;1292;22566;-56
2023/12/28 01:26:26;;;;;;;13.60;9.00;;;24.10;54.70;;;;;;218530;1289;22709;-58
2023/12/28 01:31:30;;;;;;;12.00;9.40;;;24.00;54.60;;;;;;218537;1288;25254;-57
2023/12/28 01:36:35;;;;;;;12.40;8.70;;;23.70;55.00;;;;;;219326;1274;22640;-57
2023/12/28 01:41:39;;;;;;;11.00;8.70;;;23.60;56.00;;;;;;219336;1287;25441;-57
2023/12/28 01:46:44;;;;;;;12.50;9.60;;;23.50;55.60;;;;;;219300;1283;22541;-56
2023/12/28 01:51:49;;;;;;;9.90;8.10;;;23.40;55.80;;;;;;219145;1285;25316;-57
2023/12/28 01:56:54;;;;;;;10.70;8.30;;;23.40;55.70;;;;;;219222;1286;22544;-58
2023/12/28 02:01:59;;;;;;;12.30;8.80;;;23.40;56.00;;;;;;219044;1276;24506;-56
2023/12/28 02:07:05;;;;;;;11.30;8.50;;;23.40;55.60;;;;;;219269;1287;22706;-56
2023/12/28 02:12:10;;;;;;;10.80;8.40;;;23.40;55.30;;;;;;219203;1286;24375;-57
2023/12/28 02:17:26;;;;;;;11.10;8.50;;;23.30;55.40;;;;;;219038;1273;22902;-57
2023/12/28 02:22:34;;;;;;;11.20;8.60;;;23.60;55.00;;;;;;219218;1285;22700;-56
2023/12/28 02:27:41;;;;;;;12.60;8.60;;;24.00;54.00;;;;;;219156;1287;22547;-56
2023/12/28 02:33:07;;;;;;;10.80;8.70;;;24.20;53.60;;;;;;219327;1283;22639;-57
2023/12/28 02:38:14;;;;;;;12.00;9.20;;;24.20;53.50;;;;;;219237;1286;22538;-57
2023/12/28 02:43:19;;;;;;;12.10;8.20;;;24.30;53.70;;;;;;219127;1287;24560;-56
2023/12/28 02:48:25;;;;;;;11.70;8.90;;;24.10;53.70;;;;;;219190;1287;24405;-57
2023/12/28 02:53:30;;;;;;;15.30;9.10;;;23.90;53.90;;;;;;219070;1288;22555;-57
2023/12/28 02:58:34;;;;;;;9.90;8.40;;;23.90;54.40;;;;;;219310;1286;23636;-56
2023/12/28 03:03:40;;;;;;;11.40;8.60;;;23.70;54.50;;;;;;219030;1285;24297;-57
2023/12/28 03:08:45;;;;;;;10.90;8.30;;;23.60;55.00;;;;;;220315;1285;22578;-56
2023/12/28 03:13:49;;;;;;;10.50;8.20;;;23.70;54.90;;;;;;219208;1282;25383;-54
2023/12/28 03:18:54;;;;;;;10.90;7.60;;;23.60;54.40;;;;;;219043;1283;24205;-56
2023/12/28 03:24:00;;;;;;;11.00;8.80;;;23.50;54.90;;;;;;219252;1287;23947;-54
2023/12/28 03:29:08;;;;;;;10.40;8.30;;;23.70;54.50;;;;;;219248;1288;25370;-56
2023/12/28 03:34:13;;;;;;;12.70;8.10;;;23.60;54.40;;;;;;219335;1285;22642;-57
2023/12/28 03:39:18;;;;;;;10.60;8.70;;;23.50;54.70;;;;;;219682;1286;24241;-57
2023/12/28 03:44:23;;;;;;;12.30;8.50;;;23.60;54.40;;;;;;219184;1264;22640;-56
2023/12/28 03:49:27;;;;;;;9.50;7.90;;;23.90;53.90;;;;;;219519;1286;22536;-55
2023/12/28 03:54:32;;;;;;;11.00;7.50;;;23.90;54.10;;;;;;219136;1276;25510;-56
2023/12/28 03:59:37;;;;;;;10.80;7.80;;;24.10;53.50;;;;;;219514;1278;22544;-58
2023/12/28 04:04:42;;;;;;;8.50;7.50;;;24.20;53.30;;;;;;218869;1282;22526;-55
2023/12/28 04:09:48;;;;;;;10.10;7.50;;;24.10;53.40;;;;;;219339;1285;24298;-61
2023/12/28 04:14:52;;;;;;;9.60;8.40;;;23.90;53.80;;;;;;219229;1286;22659;-56
2023/12/28 04:19:57;;;;;;;10.10;7.70;;;23.80;54.50;;;;;;219139;1288;24244;-58
2023/12/28 04:25:02;;;;;;;11.00;8.10;;;23.60;54.30;;;;;;219134;1285;22594;-57
2023/12/28 04:30:07;;;;;;;8.60;7.70;;;23.60;54.40;;;;;;219233;1277;25180;-57
2023/12/28 04:35:12;;;;;;;8.70;7.80;;;23.60;54.30;;;;;;219144;1288;22703;-57
2023/12/28 04:40:17;;;;;;;9.60;6.80;;;23.60;54.20;;;;;;218509;1276;25262;-57
2023/12/28 04:45:22;;;;;;;10.40;8.30;;;23.60;54.10;;;;;;218576;1286;24229;-55
2023/12/28 04:50:28;;;;;;;10.10;8.00;;;23.50;54.90;;;;;;218443;1283;25283;-57
2023/12/28 04:55:32;;;;;;;9.50;7.50;;;23.30;54.60;;;;;;218614;1289;25259;-56
2023/12/28 05:00:37;;;;;;;10.10;7.90;;;23.30;54.70;;;;;;218446;1289;22563;-57
2023/12/28 05:05:46;;;;;;;8.30;7.40;;;23.60;54.20;;;;;;218938;1287;22655;-57
2023/12/28 05:10:52;;;;;;;9.50;7.00;;;23.90;53.30;;;;;;219165;1286;22542;-57
2023/12/28 05:15:57;;;;;;;8.80;7.10;;;24.10;53.10;;;;;;219265;1283;24356;-58
2023/12/28 05:21:02;;;;;;;9.60;7.60;;;24.10;53.00;;;;;;219152;1286;24406;-59
2023/12/28 05:26:07;;;;;;;8.70;7.00;;;24.10;53.10;;;;;;219138;1282;25424;-57
2023/12/28 05:31:13;;;;;;;7.70;6.90;;;23.90;53.50;;;;;;219147;1283;22543;-56
2023/12/28 05:36:17;;;;;;;8.00;7.10;;;23.70;54.10;;;;;;219040;1273;25439;-56
2023/12/28 05:41:22;;;;;;;8.30;6.70;;;23.70;53.90;;;;;;219272;1282;22941;-56
2023/12/28 05:46:26;;;;;;;7.20;6.40;;;23.70;54.10;;;;;;219169;1287;22568;-58
2023/12/28 05:51:39;;;;;;;6.80;6.20;;;23.60;54.20;;;;;;219091;1288;25325;-57
2023/12/28 05:56:46;;;;;;;10.50;6.90;;;23.60;54.60;;;;;;219212;1286;22500;-55
2023/12/28 06:01:52;;;;;;;9.90;6.80;;;23.60;54.50;;;;;;219150;1280;22614;-62
2023/12/28 06:06:56;;;;;;;7.00;6.30;;;23.40;54.30;;;;;;219295;1287;22604;-56
2023/12/28 06:12:01;;;;;;;8.20;6.40;;;23.40;54.30;;;;;;219359;1286;24224;-56
2023/12/28 06:17:06;;;;;;;8.50;6.90;;;23.30;54.30;;;;;;219151;1285;24247;-55
2023/12/28 06:22:11;;;;;;;8.20;6.60;;;23.30;54.60;;;;;;219674;1281;513855;-57
2023/12/28 06:27:15;;;;;;;7.60;6.20;;;23.20;54.50;;;;;;219454;1286;24214;-56
2023/12/28 06:32:19;;;;;;;7.70;6.40;;;23.10;54.60;;;;;;222000;1288;25310;-55
2023/12/28 06:37:27;;;;;;;7.70;6.80;;;23.10;54.50;;;;;;222396;1286;24313;-56
2023/12/28 06:42:31;;;;;;;8.90;7.20;;;23.10;54.40;;;;;;218890;1285;24249;-56
2023/12/28 06:47:36;;;;;;;14.50;8.20;;;23.00;54.40;;;;;;219059;1279;22540;-57
2023/12/28 06:52:40;;;;;;;11.40;9.20;;;23.10;54.40;;;;;;219171;1282;25520;-56
2023/12/28 06:57:45;;;;;;;13.00;9.10;;;23.30;54.10;;;;;;219256;1288;25323;-55
2023/12/28 07:02:49;;;;;;;12.20;9.50;;;23.60;53.30;;;;;;219305;1287;22544;-55
2023/12/28 07:07:54;;;;;;;11.70;9.30;;;23.80;52.80;;;;;;218972;1288;22537;-57
2023/12/28 07:12:59;;;;;;;11.90;9.20;;;23.80;52.90;;;;;;218979;1285;24415;-56
2023/12/28 07:18:07;;;;;;;13.40;9.90;;;23.70;53.00;;;;;;218971;1288;24272;-56
2023/12/28 07:23:11;;;;;;;13.00;9.70;;;23.60;53.00;;;;;;219024;1270;23938;-56
2023/12/28 07:28:16;;;;;;;12.70;9.70;;;23.50;53.20;;;;;;219089;1283;22543;-57
2023/12/28 07:33:20;;;;;;;12.60;9.80;;;23.40;53.80;;;;;;219507;1273;24268;-54
2023/12/28 07:38:25;;;;;;;15.00;8.90;;;23.40;53.60;;;;;;219150;1285;25662;-56
2023/12/28 07:43:29;;;;;;;12.20;9.60;;;23.30;54.30;;;;;;219145;1286;24367;-56
2023/12/28 07:48:34;;;;;;;13.50;9.80;;;23.30;54.40;;;;;;219274;1286;24233;-56
2023/12/28 07:53:39;;;;;;;12.70;9.20;;;23.20;54.80;;;;;;219066;1288;22554;-55
2023/12/28 07:58:43;;;;;;;9.50;8.30;;;23.30;54.80;;;;;;218927;1273;25250;-55
2023/12/28 08:03:48;;;;;;;12.00;8.30;;;23.30;54.70;;;;;;219029;1274;24256;-55
2023/12/28 08:08:53;;;;;;;10.20;8.10;;;23.10;54.70;;;;;;218931;1283;22539;-56
2023/12/28 08:13:58;;;;;;;11.50;8.30;;;23.10;54.70;;;;;;219351;1281;24185;-56
2023/12/28 08:19:02;;;;;;;11.70;8.40;;;23.00;55.10;;;;;;219405;1287;23169;-52
2023/12/28 08:24:07;;;;;;;12.20;8.00;;;22.90;55.40;;;;;;219208;1288;25463;-52
2023/12/28 08:29:12;;;;;;;12.70;7.80;;;22.80;55.60;;;;;;219173;1288;24237;-49
2023/12/28 08:34:16;;;;;;;13.50;7.90;;;22.90;55.40;;;;;;219024;1288;25672;-51
2023/12/28 08:39:20;;;;;;;13.60;8.80;;;23.00;55.10;;;;;;219281;1283;24225;-51
2023/12/28 08:44:25;;;;;;;10.80;7.90;;;23.20;54.30;;;;;;219466;1288;22643;-46
2023/12/28 08:49:29;;;;;;;10.80;7.90;;;23.40;53.80;;;;;;219241;1286;24308;-47
2023/12/28 08:54:34;;;;;;;10.80;7.70;;;23.60;53.50;;;;;;219101;1287;23540;-51
2023/12/28 08:59:39;;;;;;;11.10;7.20;;;23.60;53.50;;;;;;219237;1285;25368;-53
2023/12/28 09:04:43;;;;;;;12.50;6.80;;;23.60;53.50;;;;;;219296;1283;22526;-51
2023/12/28 09:09:48;;;;;;;7.30;6.60;;;23.40;54.10;;;;;;219084;1287;22566;-52
2023/12/28 09:14:52;;;;;;;9.00;6.90;;;23.30;53.60;;;;;;219157;1286;24220;-52
2023/12/28 09:19:58;;;;;;;10.40;7.50;;;23.20;54.20;;;;;;219148;1280;24221;-50
2023/12/28 09:25:04;;;;;;;10.90;6.90;;;23.10;54.10;;;;;;219459;1282;22543;-54
2023/12/28 09:30:09;;;;;;;7.80;6.40;;;23.00;54.20;;;;;;219295;1287;24240;-49
2023/12/28 09:35:14;;;;;;;11.00;7.60;;;23.10;54.30;;;;;;219210;1273;22754;-51
2023/12/28 09:40:18;;;;;;;12.50;7.00;;;23.10;54.10;;;;;;219056;1282;22568;-51
2023/12/28 09:45:24;;;;;;;7.20;6.00;;;23.10;53.80;;;;;;219173;1287;24376;-53
2023/12/28 09:50:29;;;;;;;10.20;6.60;;;23.20;53.90;;;;;;219298;1282;23968;-51
2023/12/28 09:55:34;;;;;;;14.60;6.50;;;23.20;53.90;;;;;;219161;1273;25348;-51
2023/12/28 10:00:38;;;;;;;13.30;6.90;;;23.20;54.10;;;;;;219110;1280;22569;-52
2023/12/28 10:05:48;;;;;;;13.00;5.50;;;23.20;54.50;;;;;;219280;1283;24365;-51
2023/12/28 10:10:54;;;;;;;11.10;5.70;;;23.10;54.00;;;;;;219264;1273;22568;-52
2023/12/28 10:15:59;;;;;;;9.80;5.50;;;23.00;54.80;;;;;;219274;1286;24225;-50
2023/12/28 10:21:04;;;;;;;10.80;6.20;;;22.80;54.60;;;;;;218930;1273;24253;-50
2023/12/28 10:26:08;;;;;;;13.00;5.40;;;22.90;54.60;;;;;;219145;1286;24346;-48
2023/12/28 10:31:14;;;;;;;14.50;6.30;;;23.10;55.10;;;;;;219148;1270;22567;-50
2023/12/28 10:36:21;;;;;;;11.50;6.50;;;23.30;54.70;;;;;;219129;1280;24388;-49
2023/12/28 10:41:30;;;;;;;10.20;6.50;;;23.60;54.80;;;;;;219126;1283;22559;-50
2023/12/28 10:46:43;;;;;;;15.10;6.80;;;23.80;54.90;;;;;;219009;1274;22549;-50
2023/12/28 10:51:52;;;;;;;10.50;7.40;;;23.70;55.30;;;;;;218514;1287;22543;-50
2023/12/28 10:57:04;;;;;;;10.50;8.20;;;23.70;55.20;;;;;;218397;1286;25646;-49
2023/12/28 11:02:09;;;;;;;;;;;23.50;55.80;;;;;;218521;1286;25405;-51
2023/12/28 11:07:19;;;;;;;11.40;7.10;;;23.40;56.30;;;;;;218624;1286;24212;-50
2023/12/28 11:12:24;;;;;;;9.70;7.50;;;23.30;56.40;;;;;;219014;1282;26659;-48
2023/12/28 11:17:31;;;;;;;10.20;7.70;;;23.30;56.50;;;;;;218899;1270;25368;-48
2023/12/28 11:22:37;;;;;;;11.70;9.00;;;23.30;56.40;;;;;;219006;1283;22826;-47
2023/12/28 11:27:41;;;;;;;10.20;8.70;;;23.30;56.30;;;;;;219235;1280;22543;-50
2023/12/28 11:32:46;;;;;;;10.00;8.70;;;23.40;56.70;;;;;;219188;1274;22978;-49
2023/12/28 11:37:53;;;;;;;15.10;9.30;;;23.30;56.50;;;;;;219069;1279;22711;-49
2023/12/28 11:42:58;;;;;;;11.20;8.60;;;23.40;56.30;;;;;;219067;1283;22552;-49
2023/12/28 11:48:03;;;;;;;11.00;9.00;;;23.30;56.70;;;;;;219145;1288;22562;-53
2023/12/28 11:53:08;;;;;;;13.90;8.90;;;23.40;56.70;;;;;;218993;1279;23160;-50
2023/12/28 11:58:13;;;;;;;12.50;8.80;;;23.40;56.20;;;;;;218771;1284;24253;-52
2023/12/28 12:03:19;;;;;;;14.50;8.10;;;23.30;56.10;;;;;;219042;1282;24399;-49
2023/12/28 12:08:25;;;;;;;9.40;8.00;;;23.20;56.20;;;;;;218806;1283;26495;-51
2023/12/28 12:13:31;;;;;;;10.40;8.10;;;23.10;56.50;;;;;;219019;1283;22554;-53
2023/12/28 12:18:36;;;;;;;12.50;8.50;;;23.10;55.80;;;;;;218863;1279;24260;-49
2023/12/28 12:23:41;;;;;;;18.70;13.90;;;23.00;56.00;;;;;;217941;1292;25389;-50
2023/12/28 12:28:45;;;;;;;12.70;10.40;;;23.00;55.50;;;;;;217812;1285;24279;-52
2023/12/28 12:33:51;;;;;;;13.80;9.40;;;23.00;55.60;;;;;;218085;1292;22711;-52
2023/12/28 12:38:57;;;;;;;12.20;10.70;;;22.90;55.60;;;;;;218937;1279;22593;-52
2023/12/28 12:44:02;;;;;;;10.60;9.20;;;23.00;55.50;;;;;;219382;1279;24383;-52
2023/12/28 12:49:08;;;;;;;14.40;9.70;;;22.90;55.60;;;;;;219378;1283;22650;-48
2023/12/28 12:54:18;;;;;;;17.10;14.70;;;22.80;56.20;;;;;;219238;1276;22589;-51
2023/12/28 12:59:25;;;;;;;20.30;18.30;;;23.10;55.70;;;;;;219243;1280;22766;-52
2023/12/28 13:04:31;;;;;;;17.90;16.00;;;23.30;55.10;;;;;;219058;1280;23940;-54
2023/12/28 13:09:35;;;;;;;17.70;15.70;;;23.60;54.40;;;;;;219085;1282;22683;-51
2023/12/28 13:14:40;;;;;;;72.50;33.50;;;23.80;54.40;;;;;;219082;1283;26663;-52
2023/12/28 13:19:45;;;;;;;68.80;31.50;;;23.80;54.80;;;;;;219065;1283;26554;-51
2023/12/28 13:24:50;;;;;;;64.30;30.60;;;23.70;55.60;;;;;;219005;1282;22616;-52
2023/12/28 13:29:55;;;;;;;61.30;27.70;;;23.60;56.70;;;;;;219037;1275;24223;-52
2023/12/28 13:35:00;;;;;;;64.60;26.70;;;23.60;57.00;;;;;;219241;1280;25915;-52
2023/12/28 13:40:07;;;;;;;56.10;25.60;;;23.60;57.30;;;;;;217791;1288;22556;-53
2023/12/28 13:45:12;;;;;;;54.30;24.40;;;23.50;58.20;;;;;;217881;1277;24388;-53
2023/12/28 13:50:17;;;;;;;49.20;24.00;;;23.50;57.50;;;;;;217657;1289;22853;-50
2023/12/28 13:55:22;;;;;;;51.10;23.50;;;23.60;57.60;;;;;;218947;1288;22596;-52
2023/12/28 14:00:26;;;;;;;40.10;22.70;;;23.60;57.10;;;;;;219105;1287;24456;-49
2023/12/28 14:05:31;;;;;;;45.90;22.10;;;23.50;58.60;;;;;;219180;1267;22804;-52
2023/12/28 14:10:39;;;;;;;70.40;29.40;;;23.60;59.90;;;;;;218907;1280;24262;-50
2023/12/28 14:15:44;;;;;;;48.30;24.40;;;23.60;59.50;;;;;;218974;1283;22537;-50
2023/12/28 14:20:48;;;;;;;49.80;22.10;;;23.50;60.00;;;;;;219151;1286;23908;-52
2023/12/28 14:25:54;;;;;;;47.00;23.30;;;23.30;59.70;;;;;;219221;1286;25298;-51
2023/12/28 14:30:59;;;;;;;44.80;21.50;;;23.30;59.60;;;;;;218911;1282;22563;-50
2023/12/28 14:36:08;;;;;;;41.00;20.40;;;23.30;59.60;;;;;;219613;1283;23143;-49
2023/12/28 14:41:13;;;;;;;47.40;20.90;;;23.30;59.00;;;;;;219287;1283;22539;-50
2023/12/28 14:46:18;;;;;;;42.50;19.90;;;23.30;59.40;;;;;;219207;1283;25535;-51
2023/12/28 14:51:22;;;;;;;40.70;18.70;;;23.20;59.10;;;;;;219082;1284;24466;-51
2023/12/28 14:56:27;;;;;;;35.60;18.40;;;23.20;59.30;;;;;;218909;1271;24455;-53
2023/12/28 15:01:49;;;;;;;36.80;17.90;;;23.00;59.70;;;;;;219190;1280;22552;-50
2023/12/28 15:06:53;;;;;;;31.80;17.00;;;22.90;60.10;;;;;;219183;1280;22569;-51
2023/12/28 15:12:00;;;;;;;25.30;14.80;;;23.10;59.30;;;;;;219187;1283;22555;-53
2023/12/28 15:17:05;;;;;;;27.00;15.50;;;23.00;58.60;;;;;;219039;1286;22547;-55
2023/12/28 15:22:15;;;;;;;28.50;15.70;;;23.00;57.60;;;;;;218648;1283;22591;-53
2023/12/28 15:27:19;;;;;;;26.40;14.50;;;23.00;56.60;;;;;;218703;1285;24273;-52
2023/12/28 15:32:24;;;;;;;24.00;12.70;;;23.00;56.10;;;;;;218304;1292;25395;-54
2023/12/28 15:37:31;;;;;;;23.10;13.60;;;23.20;55.70;;;;;;218453;1279;24641;-52
2023/12/28 15:42:35;;;;;;;26.70;13.50;;;23.70;54.50;;;;;;218728;1286;24278;-53
2023/12/28 15:47:40;;;;;;;21.50;13.20;;;23.90;53.70;;;;;;218964;1282;22803;-52
2023/12/28 15:52:44;;;;;;;19.30;12.60;;;23.90;53.30;;;;;;219157;1286;24347;-52
2023/12/28 15:57:50;;;;;;;19.10;12.10;;;23.80;53.30;;;;;;219084;1280;24439;-53
2023/12/28 16:02:56;;;;;;;20.90;12.30;;;23.60;53.40;;;;;;219259;1287;24205;-53
2023/12/28 16:08:02;;;;;;;18.70;12.20;;;23.50;53.50;;;;;;219275;1283;22606;-50
2023/12/28 16:13:07;;;;;;;21.60;11.90;;;23.30;54.00;;;;;;219626;1286;22533;-54
2023/12/28 16:18:13;;;;;;;16.80;11.30;;;23.20;53.50;;;;;;219358;1286;24942;-54
2023/12/28 16:23:18;;;;;;;19.80;11.70;;;23.10;53.70;;;;;;219179;1283;22749;-52
2023/12/28 16:28:23;;;;;;;17.50;10.50;;;23.00;53.50;;;;;;219163;1283;25117;-51
2023/12/28 16:33:29;;;;;;;15.10;11.40;;;23.10;53.10;;;;;;219167;1280;25362;-54
2023/12/28 16:38:34;;;;;;;16.40;10.90;;;23.00;53.00;;;;;;219155;1277;22538;-52
2023/12/28 16:43:41;;;;;;;19.00;11.30;;;23.00;52.60;;;;;;219398;1283;25506;-52
2023/12/28 16:48:45;;;;;;;15.10;10.60;;;23.10;52.50;;;;;;219730;1277;25387;-51
2023/12/28 16:53:50;;;;;;;16.30;11.60;;;23.10;52.50;;;;;;219537;1282;25321;-54
2023/12/28 16:58:56;;;;;;;19.10;12.10;;;23.00;52.10;;;;;;219274;1288;22542;-53
2023/12/28 17:04:01;;;;;;;15.50;10.40;;;23.00;52.40;;;;;;219533;1285;25465;-53
2023/12/28 17:09:09;;;;;;;15.40;11.10;;;23.20;51.70;;;;;;219230;1283;24221;-55
2023/12/28 17:14:15;;;;;;;13.10;10.30;;;23.60;50.60;;;;;;219545;1283;25348;-54
2023/12/28 17:19:20;;;;;;;14.40;10.70;;;23.80;50.10;;;;;;219276;1288;25455;-55
2023/12/28 17:24:31;;;;;;;15.20;11.10;;;23.90;49.70;;;;;;219249;1283;22668;-53
2023/12/28 17:29:38;;;;;;;14.10;10.10;;;24.00;49.70;;;;;;219144;1288;24230;-52
2023/12/28 17:34:44;;;;;;;17.70;10.70;;;23.80;49.80;;;;;;219583;1283;22570;-53
2023/12/28 17:39:52;;;;;;;17.10;10.90;;;23.70;50.20;;;;;;218990;1283;24261;-53
2023/12/28 17:44:59;;;;;;;15.30;11.30;;;23.60;50.20;;;;;;219259;1280;22666;-51
2023/12/28 17:50:04;;;;;;;16.20;12.30;;;23.30;50.80;;;;;;219254;1283;22935;-49
2023/12/28 17:55:09;;;;;;;19.30;12.20;;;23.20;50.80;;;;;;219217;1279;22542;-51
2023/12/28 18:00:15;;;;;;;18.70;13.10;;;23.10;51.00;;;;;;219200;1283;22674;-53
2023/12/28 18:05:21;;;;;;;16.60;12.20;;;23.10;51.80;;;;;;219144;1285;24242;-50
2023/12/28 18:10:27;;;;;;;18.00;11.80;;;23.00;51.20;;;;;;218976;1276;25258;-52
2023/12/28 18:15:40;;;;;;;19.20;13.00;;;23.00;51.10;;;;;;218966;1283;22834;-52
2023/12/28 18:20:45;;;;;;;16.80;12.60;;;23.00;51.50;;;;;;219053;1283;24240;-52
2023/12/28 18:25:49;;;;;;;18.00;12.70;;;22.80;51.40;;;;;;218991;1282;546997;-51
2023/12/28 18:30:55;;;;;;;17.10;12.20;;;22.90;51.80;;;;;;219131;1283;23068;-50
2023/12/28 18:36:02;;;;;;;27.10;11.90;;;23.10;51.80;;;;;;218989;1285;22545;-52
2023/12/28 18:41:06;;;;;;;20.90;12.10;;;23.40;52.10;;;;;;219197;1283;24211;-54
2023/12/28 18:46:11;;;;;;;31.20;13.00;;;23.40;51.20;;;;;;218985;1288;24217;-53
2023/12/28 18:51:16;;;;;;;19.20;12.80;;;23.50;51.70;;;;;;219163;1280;22558;-52
2023/12/28 18:56:20;;;;;;;16.80;12.30;;;23.80;52.50;;;;;;218936;1285;24218;-54
2023/12/28 19:01:25;;;;;;;21.20;12.10;;;23.80;52.60;;;;;;219088;1287;24234;-54
2023/12/28 19:06:30;;;;;;;23.10;12.40;;;23.70;52.50;;;;;;218827;1283;22918;-53
2023/12/28 19:11:35;;;;;;;21.90;12.80;;;23.60;52.50;;;;;;219175;1283;24218;-47
2023/12/28 19:16:40;;;;;;;18.80;13.80;;;23.50;52.60;;;;;;218928;1283;22545;-50
2023/12/28 19:21:45;;;;;;;20.90;13.80;;;23.50;52.80;;;;;;219130;1276;25418;-49
2023/12/28 19:26:50;;;;;;;21.20;14.20;;;23.40;52.30;;;;;;218953;1283;22533;-52
2023/12/28 19:31:55;;;;;;;20.80;13.60;;;23.20;52.60;;;;;;218714;1283;24231;-49
2023/12/28 19:36:59;;;;;;;23.00;13.50;;;23.20;53.50;;;;;;218924;1283;24514;-48
2023/12/28 19:42:14;;;;;;;19.50;14.10;;;23.20;53.50;;;;;;218919;1286;24231;-52
2023/12/28 19:47:19;;;;;;;18.90;13.10;;;23.10;53.70;;;;;;218579;1283;24352;-50
2023/12/28 19:52:24;;;;;;;20.30;14.20;;;23.10;53.40;;;;;;218893;1286;22546;-50
2023/12/28 19:57:28;;;;;;;21.60;13.70;;;23.10;53.60;;;;;;218840;1280;25360;-53
2023/12/28 20:02:32;;;;;;;17.90;12.60;;;23.10;53.20;;;;;;219009;1287;22550;-49
2023/12/28 20:07:37;;;;;;;21.80;14.60;;;22.90;54.20;;;;;;219100;1282;24013;-52
2023/12/28 20:12:42;;;;;;;16.40;12.40;;;22.80;53.80;;;;;;219039;1285;22747;-53
2023/12/28 20:17:46;;;;;;;18.10;13.90;;;22.90;54.00;;;;;;218882;1285;24387;-51
2023/12/28 20:22:51;;;;;;;20.20;14.20;;;22.70;53.80;;;;;;219270;1276;24230;-51
2023/12/28 20:27:57;;;;;;;22.60;14.10;;;22.80;53.70;;;;;;219186;1282;22558;-54
2023/12/28 20:33:02;;;;;;;20.30;14.20;;;22.70;53.80;;;;;;219220;1273;22570;-53
2023/12/28 20:38:07;;;;;;;29.70;14.60;;;22.70;53.40;;;;;;219046;1286;22545;-54
2023/12/28 20:43:12;;;;;;;23.40;15.00;;;23.10;53.00;;;;;;218981;1286;22543;-53
2023/12/28 20:48:16;;;;;;;20.90;14.80;;;23.70;51.50;;;;;;218931;1282;24202;-52
2023/12/28 20:53:21;;;;;;;23.90;14.50;;;24.00;50.70;;;;;;218901;1285;23044;-54
2023/12/28 20:58:25;;;;;;;24.50;14.00;;;24.00;50.20;;;;;;219003;1283;24419;-54
2023/12/28 21:03:30;;;;;;;23.90;14.70;;;23.90;50.60;;;;;;219110;1287;22629;-54
2023/12/28 21:08:38;;;;;;;19.70;13.80;;;23.70;51.00;;;;;;218956;1283;25250;-49
2023/12/28 21:13:42;;;;;;;24.60;15.10;;;23.60;51.30;;;;;;219313;1280;25535;-45
2023/12/28 21:18:47;;;;;;;22.70;15.10;;;23.50;51.40;;;;;;219038;1286;24304;-49
2023/12/28 21:23:52;;;;;;;23.10;15.30;;;23.40;51.60;;;;;;219238;1286;24263;-48
2023/12/28 21:28:56;;;;;;;19.40;14.60;;;23.30;52.10;;;;;;219131;1283;24252;-52
2023/12/28 21:34:01;;;;;;;20.90;14.70;;;23.40;51.80;;;;;;218914;1267;22539;-48
2023/12/28 21:39:06;;;;;;;21.70;14.70;;;23.30;52.30;;;;;;218815;1280;23194;-47
2023/12/28 21:44:11;;;;;;;19.70;14.60;;;23.10;52.20;;;;;;219089;1274;24161;-52
2023/12/28 21:49:16;;;;;;;19.30;13.70;;;23.10;52.10;;;;;;219029;1288;22567;-49
2023/12/28 21:54:21;;;;;;;18.80;13.50;;;23.40;51.70;;;;;;219383;1283;22754;-49
2023/12/28 21:59:25;;;;;;;20.10;13.70;;;23.70;50.60;;;;;;219375;1280;22764;-48
2023/12/28 22:04:30;;;;;;;18.40;14.00;;;23.90;50.30;;;;;;219192;1286;25075;-50
2023/12/28 22:09:36;;;;;;;26.10;15.20;;;24.00;50.00;;;;;;219109;1287;22558;-49
2023/12/28 22:14:41;;;;;;;21.60;13.80;;;23.90;53.20;;;;;;219296;1286;22535;-49
2023/12/28 22:19:46;;;;;;;25.70;13.90;;;23.90;51.60;;;;;;219097;1285;23894;-50
2023/12/28 22:24:50;;;;;;;21.10;12.70;;;23.80;51.90;;;;;;218829;1283;22540;-47
2023/12/28 22:29:55;;;;;;;20.00;13.50;;;23.70;51.90;;;;;;221967;1280;26554;-49
2023/12/28 22:34:59;;;;;;;19.10;13.50;;;23.80;51.30;;;;;;219201;1287;22628;-47
2023/12/28 22:40:06;;;;;;;17.40;13.50;;;23.60;51.60;;;;;;220405;1286;24254;-49
2023/12/28 22:45:11;;;;;;;21.00;14.00;;;23.70;51.70;;;;;;218699;1282;22544;-51
2023/12/28 22:50:17;;;;;;;15.90;13.20;;;23.60;51.80;;;;;;218385;1291;25498;-47
2023/12/28 22:55:22;;;;;;;18.60;13.30;;;23.50;51.70;;;;;;218927;1287;22604;-48
2023/12/28 23:00:40;;;;;;;18.10;13.40;;;23.40;51.40;;;;;;219052;1283;22524;-51
2023/12/28 23:05:46;;;;;;;16.90;13.30;;;23.40;51.90;;;;;;219117;1281;24584;-49
2023/12/28 23:10:53;;;;;;;20.80;13.60;;;23.20;52.10;;;;;;218850;1286;22659;-48
2023/12/28 23:15:59;;;;;;;15.90;12.20;;;23.40;52.90;;;;;;218269;1289;24244;-49
2023/12/28 23:21:05;;;;;;;19.50;12.90;;;23.90;52.40;;;;;;218031;1286;25120;-48
2023/12/28 23:26:19;;;;;;;17.50;12.40;;;24.10;51.80;;;;;;218367;1292;24215;-49
2023/12/28 23:31:23;;;;;;;15.30;11.70;;;24.20;51.90;;;;;;218358;1280;25274;-49
2023/12/28 23:36:28;;;;;;;20.60;12.90;;;24.10;52.10;;;;;;219018;1283;24348;-50
2023/12/28 23:41:32;;;;;;;16.70;12.10;;;24.10;52.20;;;;;;219006;1284;24319;-60
2023/12/28 23:46:37;;;;;;;16.70;12.50;;;23.90;52.60;;;;;;219078;1285;22665;-59
2023/12/28 23:51:42;;;;;;;14.30;11.80;;;23.70;53.00;;;;;;219327;1283;25348;-59
2023/12/28 23:56:46;;;;;;;15.80;11.30;;;23.60;53.30;;;;;;219250;1285;24206;-61
